Terminal Aerodrome Forecast
Issued by NWS Austin/San Antonio, TX

Home | Current Version | Previous Version | Text Only | Print | Product List | Glossary On
Versions: 1 2 3 4 5 6 7 8 9 10 11 12 13 14 15 16 17 18 19 20 21
284
FTUS44 KEWX 291720
TAFDRT
TAF
KDRT 291720Z 2918/3018 12005KT P6SM BKN025
     FM291900 14010KT P6SM SCT050
     FM301300 11005KT P6SM BKN025
     FM301700 14010KT P6SM SCT050=

USA.gov is the U.S. government's official web portal to all federal, state and local government web resources and services.